createdAt,value
2018-06-17T00:00:49.606Z,98113.44
2018-06-17T00:03:19.955Z,98106.13
2018-06-17T00:05:50.324Z,98107.03
2018-06-17T00:08:20.236Z,98103.95
2018-06-17T00:10:50.150Z,98111.37
2018-06-17T00:13:24.991Z,98109.09
2018-06-17T00:15:54.866Z,98115.16
2018-06-17T00:18:24.818Z,98110.26
2018-06-17T00:21:02.848Z,98114.59
2018-06-17T00:23:33.604Z,98108.42
2018-06-17T00:26:03.683Z,98115.16
2018-06-17T00:28:33.951Z,98106.98
2018-06-17T00:31:03.864Z,98107.87
2018-06-17T00:33:33.786Z,98108.42
2018-06-17T00:36:09.216Z,98114.72
2018-06-17T00:38:39.160Z,98119.02
2018-06-17T00:41:09.158Z,98123.74
2018-06-17T00:43:39.526Z,98121.81
2018-06-17T00:46:09.663Z,98121.52
2018-06-17T00:48:39.578Z,98121.73
2018-06-17T00:51:09.728Z,98111.14
2018-06-17T00:53:39.651Z,98126.95
2018-06-17T00:56:09.668Z,98119.36
2018-06-17T00:58:40.962Z,98127.78
2018-06-17T01:01:10.914Z,98125.27
2018-06-17T01:03:41.044Z,98132.80
2018-06-17T01:06:11.526Z,98127.03
2018-06-17T01:08:41.484Z,98123.34
2018-06-17T01:11:11.649Z,98128.13
2018-06-17T01:13:56.063Z,98131.47
2018-06-17T01:16:25.997Z,98131.69
2018-06-17T01:18:56.226Z,98126.68
2018-06-17T01:21:26.575Z,98132.73
2018-06-17T01:23:56.953Z,98127.44
2018-06-17T01:26:26.974Z,98126.50
2018-06-17T01:29:00.919Z,98132.31
2018-06-17T01:31:30.888Z,98129.09
2018-06-17T01:34:00.874Z,98139.20
2018-06-17T01:36:30.814Z,98137.30
2018-06-17T01:39:01.025Z,98131.92
2018-06-17T01:41:30.969Z,98134.42
2018-06-17T01:44:00.874Z,98136.70
2018-06-17T01:46:31.205Z,98142.57
2018-06-17T01:49:30.962Z,98141.67
2018-06-17T01:52:00.970Z,98134.97
2018-06-17T01:54:31.259Z,98136.05
2018-06-17T01:57:01.215Z,98142.18
2018-06-17T01:59:31.117Z,98142.78
2018-06-17T02:02:19.679Z,98140.28
2018-06-17T02:04:55.164Z,98138.69
2018-06-17T02:07:33.953Z,98139.92
2018-06-17T02:12:57.674Z,98135.48
2018-06-17T02:15:31.075Z,98142.93
2018-06-17T02:18:01.913Z,98143.41
2018-06-17T02:20:32.129Z,98147.02
2018-06-17T02:23:03.776Z,98141.25
2018-06-17T02:25:33.754Z,98139.78
2018-06-17T02:30:10.986Z,98137.70
2018-06-17T02:32:43.157Z,98136.98
2018-06-17T02:35:16.620Z,98144.55
2018-06-17T02:37:51.610Z,98146.47
2018-06-17T02:40:21.716Z,98152.03
2018-06-17T02:42:51.634Z,98158.05
2018-06-17T02:45:28.249Z,98160.75
2018-06-17T02:48:04.952Z,98164.86
2018-06-17T02:53:40.984Z,98165.47
2018-06-17T02:56:11.089Z,98168.95
2018-06-17T02:58:41.169Z,98166.79
2018-06-17T03:01:11.198Z,98158.05
2018-06-17T03:03:41.155Z,98164.36
2018-06-17T03:06:11.202Z,98173.67
2018-06-17T03:08:47.720Z,98186.20
2018-06-17T03:11:17.672Z,98186.17
2018-06-17T03:13:47.633Z,98175.38
2018-06-17T03:20:24.726Z,98175.97
2018-06-17T03:22:54.636Z,98180.98
2018-06-17T03:25:36.466Z,98182.05
2018-06-17T03:28:11.420Z,98182.23
2018-06-17T03:30:47.884Z,98182.92
2018-06-17T03:36:10.921Z,98188.55
2018-06-17T03:41:59.076Z,98193.83
2018-06-17T03:44:29.625Z,98196.27
2018-06-17T03:47:01.515Z,98196.63
2018-06-17T03:49:31.507Z,98197.67
2018-06-17T03:52:01.653Z,98203.13
2018-06-17T03:54:31.671Z,98200.00
2018-06-17T03:57:03.149Z,98208.14
2018-06-17T03:59:33.194Z,98211.98
2018-06-17T04:02:03.156Z,98204.12
2018-06-17T04:04:37.128Z,98213.34
2018-06-17T04:07:07.016Z,98220.79
2018-06-17T04:09:37.058Z,98225.13
2018-06-17T04:12:09.020Z,98234.38
2018-06-17T04:14:38.939Z,98227.56
2018-06-17T04:17:14.482Z,98228.61
2018-06-17T04:19:46.984Z,98228.20
2018-06-17T04:22:23.690Z,98229.41
2018-06-17T04:24:54.528Z,98231.05
2018-06-17T04:27:24.569Z,98234.47
2018-06-17T04:29:54.409Z,98239.55
2018-06-17T04:32:24.398Z,98236.34
2018-06-17T04:34:54.312Z,98237.09
2018-06-17T04:37:27.862Z,98237.49
2018-06-17T04:39:57.826Z,98246.34
2018-06-17T04:42:27.742Z,98246.83
2018-06-17T04:44:57.670Z,98253.14
2018-06-17T04:47:29.922Z,98251.91
2018-06-17T04:49:59.860Z,98255.80
2018-06-17T04:52:30.021Z,98253.98
2018-06-17T04:55:00.271Z,98254.88
2018-06-17T04:57:30.158Z,98256.48
2018-06-17T05:00:00.155Z,98262.91
2018-06-17T05:02:30.053Z,98271.39
2018-06-17T05:05:01.298Z,98276.14
2018-06-17T05:07:49.210Z,98277.72
2018-06-17T05:10:19.101Z,98278.37
2018-06-17T05:12:53.776Z,98272.11
2018-06-17T05:15:23.696Z,98276.22
2018-06-17T05:17:53.710Z,98273.69
2018-06-17T05:20:25.140Z,98284.03
2018-06-17T05:22:55.280Z,98279.34
2018-06-17T05:25:25.242Z,98281.98
2018-06-17T05:27:56.881Z,98253.55
2018-06-17T05:30:26.810Z,98281.44
2018-06-17T05:32:56.956Z,98286.64
2018-06-17T05:35:31.736Z,98293.08
2018-06-17T05:38:01.630Z,98293.83
2018-06-17T05:40:31.649Z,98292.39
2018-06-17T05:43:01.553Z,98299.67
2018-06-17T05:45:31.469Z,98301.27
2018-06-17T05:48:01.427Z,98303.70
2018-06-17T05:50:36.326Z,98303.34
2018-06-17T05:53:06.249Z,98304.39
2018-06-17T05:55:36.252Z,98304.39
2018-06-17T05:58:06.603Z,98308.11
2018-06-17T06:00:36.593Z,98310.76
2018-06-17T06:09:12.434Z,98314.34
2018-06-17T06:11:43.356Z,98317.37
2018-06-17T06:14:13.805Z,98323.55
2018-06-17T06:16:58.078Z,98320.06
2018-06-17T06:19:37.347Z,98322.31
2018-06-17T06:25:08.932Z,98326.77
2018-06-17T06:27:39.048Z,98331.37
2018-06-17T06:30:09.263Z,98333.42
2018-06-17T06:32:39.179Z,98334.92
2018-06-17T06:35:09.550Z,98340.28
2018-06-17T06:38:27.486Z,98334.38
2018-06-17T06:41:07.241Z,98347.14
2018-06-17T06:43:37.316Z,98341.16
2018-06-17T06:46:07.423Z,98347.51
2018-06-17T06:48:37.759Z,98351.30
2018-06-17T06:51:07.795Z,98358.69
2018-06-17T06:53:37.680Z,98363.92
2018-06-17T06:56:09.202Z,98360.92
2018-06-17T06:58:39.151Z,98363.86
2018-06-17T07:01:09.077Z,98360.98
2018-06-17T07:03:51.799Z,98362.14
2018-06-17T07:06:33.079Z,98362.06
2018-06-17T07:09:16.263Z,98364.41
2018-06-17T07:11:46.130Z,98364.40
2018-06-17T07:14:20.167Z,98362.81
2018-06-17T07:17:00.793Z,98366.02
2018-06-17T07:19:31.504Z,98370.31
2018-06-17T07:22:01.699Z,98368.89
2018-06-17T07:24:31.670Z,98364.90
2018-06-17T07:30:00.608Z,98361.14
2018-06-17T07:32:30.588Z,98367.55
2018-06-17T07:35:00.513Z,98359.66
2018-06-17T07:37:31.746Z,98362.91
2018-06-17T07:40:18.895Z,98363.23
2018-06-17T07:42:50.057Z,98368.94
2018-06-17T07:45:20.266Z,98372.72
2018-06-17T07:47:50.252Z,98371.58
2018-06-17T07:50:33.445Z,98362.91
2018-06-17T07:53:12.687Z,98367.64
2018-06-17T07:55:43.396Z,98363.89
2018-06-17T07:58:14.371Z,98369.02
2018-06-17T08:00:44.566Z,98376.27
2018-06-17T08:03:14.977Z,98371.75
2018-06-17T08:05:44.910Z,98370.24
2018-06-17T08:08:14.927Z,98374.59
2018-06-17T08:10:45.461Z,98375.28
2018-06-17T08:13:15.399Z,98380.00
2018-06-17T08:15:45.813Z,98376.84
2018-06-17T08:18:19.027Z,98379.08
2018-06-17T08:20:49.981Z,98381.39
2018-06-17T08:23:21.390Z,98378.48
2018-06-17T08:25:54.382Z,98378.94
2018-06-17T08:28:24.891Z,98377.97
2018-06-17T08:30:55.153Z,98372.13
2018-06-17T08:33:25.339Z,98368.21
2018-06-17T08:35:55.730Z,98370.30
2018-06-17T08:38:26.916Z,98366.91
2018-06-17T08:40:59.927Z,98371.28
2018-06-17T08:43:31.743Z,98375.42
2018-06-17T08:46:04.995Z,98380.80
2018-06-17T08:48:35.040Z,98375.01
2018-06-17T08:51:05.964Z,98374.67
2018-06-17T08:53:40.105Z,98382.17
2018-06-17T08:56:10.112Z,98372.52
2018-06-17T08:58:40.703Z,98372.19
2018-06-17T09:01:11.093Z,98369.86
2018-06-17T09:03:42.272Z,98369.28
2018-06-17T09:06:12.616Z,98377.30
2018-06-17T09:08:44.271Z,98373.16
2018-06-17T09:11:16.136Z,98373.31
2018-06-17T09:13:46.705Z,98377.27
2018-06-17T09:16:17.469Z,98379.52
2018-06-17T09:18:48.387Z,98370.52
2018-06-17T09:21:18.714Z,98370.77
2018-06-17T09:23:49.494Z,98380.66
2018-06-17T09:26:19.623Z,98377.21
2018-06-17T09:28:50.046Z,98383.19
2018-06-17T09:31:20.811Z,98380.99
2018-06-17T09:33:50.736Z,98384.98
2018-06-17T09:36:21.070Z,98377.82
2018-06-17T09:38:51.089Z,98389.36
2018-06-17T09:41:20.984Z,98385.30
2018-06-17T09:43:51.372Z,98385.26
2018-06-17T09:46:21.398Z,98390.00
2018-06-17T09:48:51.346Z,98390.53
2018-06-17T09:51:22.451Z,98389.44
2018-06-17T09:53:54.766Z,98381.80
2018-06-17T09:56:24.884Z,98388.52
2018-06-17T09:58:55.200Z,98385.56
2018-06-17T10:01:25.840Z,98387.88
2018-06-17T10:03:55.839Z,98381.73
2018-06-17T10:06:25.895Z,98387.35
2018-06-17T10:08:55.877Z,98388.04
2018-06-17T10:11:28.313Z,98386.69
2018-06-17T10:13:58.302Z,98377.70
2018-06-17T10:16:28.191Z,98386.31
2018-06-17T10:18:58.395Z,98380.94
2018-06-17T10:21:28.280Z,98381.59
2018-06-17T10:23:58.800Z,98380.69
2018-06-17T10:26:33.132Z,98383.09
2018-06-17T10:29:03.137Z,98384.76
2018-06-17T10:31:33.277Z,98383.09
2018-06-17T10:34:03.745Z,98377.52
2018-06-17T10:36:33.972Z,98373.66
2018-06-17T10:39:04.137Z,98366.95
2018-06-17T10:41:34.566Z,98366.20
2018-06-17T10:44:04.679Z,98367.99
2018-06-17T10:46:34.658Z,98357.00
2018-06-17T10:49:07.083Z,98352.10
2018-06-17T10:51:38.479Z,98362.39
2018-06-17T10:54:08.670Z,98353.02
2018-06-17T10:56:38.916Z,98324.37
2018-06-17T10:59:09.138Z,98345.75
2018-06-17T11:01:40.551Z,98346.94
2018-06-17T11:04:10.850Z,98350.84
2018-06-17T11:06:41.023Z,98345.86
2018-06-17T11:09:11.453Z,98339.87
2018-06-17T11:11:41.572Z,98349.34
2018-06-17T11:14:11.950Z,98350.54
2018-06-17T11:16:42.294Z,98348.81
2018-06-17T11:19:13.058Z,98340.04
2018-06-17T11:21:43.440Z,98349.41
2018-06-17T11:24:17.549Z,98341.67
2018-06-17T11:26:47.891Z,98347.63
2018-06-17T11:29:17.813Z,98347.52
2018-06-17T11:31:48.178Z,98341.04
2018-06-17T11:34:18.070Z,98361.06
2018-06-17T11:36:48.362Z,98351.60
2018-06-17T11:39:18.790Z,98353.39
2018-06-17T11:41:49.915Z,98346.63
2018-06-17T11:44:20.052Z,98352.56
2018-06-17T11:46:51.237Z,98349.47
2018-06-17T11:49:21.107Z,98360.58
2018-06-17T11:51:50.996Z,98351.45
2018-06-17T11:54:26.675Z,98348.86
2018-06-17T11:56:56.681Z,98345.78
2018-06-17T11:59:27.107Z,98344.59
2018-06-17T12:01:57.435Z,98348.09
2018-06-17T12:04:27.510Z,98352.73
2018-06-17T12:06:57.428Z,98349.73
2018-06-17T12:09:31.792Z,98348.44
2018-06-17T12:12:01.809Z,98348.23
2018-06-17T12:14:31.672Z,98345.36
2018-06-17T12:17:02.157Z,98353.11
2018-06-17T12:19:32.029Z,98348.89
2018-06-17T12:22:01.940Z,98354.69
2018-06-17T12:24:32.194Z,98363.44
2018-06-17T12:27:02.159Z,98348.75
2018-06-17T12:29:32.275Z,98357.33
2018-06-17T12:32:12.801Z,98361.41
2018-06-17T12:34:42.766Z,98358.34
2018-06-17T12:37:12.672Z,98359.84
2018-06-17T12:39:43.094Z,98357.22
2018-06-17T12:42:14.023Z,98357.27
2018-06-17T12:44:44.904Z,98359.48
2018-06-17T12:47:15.106Z,98359.30
2018-06-17T12:49:45.325Z,98361.46
2018-06-17T12:52:15.237Z,98362.19
2018-06-17T12:54:45.615Z,98359.30
2018-06-17T12:57:15.589Z,98361.62
2018-06-17T12:59:45.559Z,98350.72
2018-06-17T13:02:15.725Z,98348.95
2018-06-17T13:04:45.848Z,98341.38
2018-06-17T13:07:15.792Z,98344.75
2018-06-17T13:09:46.219Z,98336.19
2018-06-17T13:12:16.396Z,98336.77
2018-06-17T13:14:46.438Z,98329.53
2018-06-17T13:17:18.769Z,98338.48
2018-06-17T13:19:49.140Z,98349.42
2018-06-17T13:22:19.180Z,98345.59
2018-06-17T13:24:49.365Z,98333.24
2018-06-17T13:27:19.623Z,98331.41
2018-06-17T13:29:49.729Z,98327.94
2018-06-17T13:32:21.928Z,98324.42
2018-06-17T13:34:51.982Z,98331.59
2018-06-17T13:37:22.359Z,98329.48
2018-06-17T13:39:52.787Z,98327.05
2018-06-17T13:42:22.911Z,98325.41
2018-06-17T13:44:52.886Z,98325.47
2018-06-17T13:47:23.241Z,98331.41
2018-06-17T13:49:53.166Z,98327.39
2018-06-17T13:52:23.945Z,98327.53
2018-06-17T13:54:55.789Z,98324.27
2018-06-17T13:57:25.964Z,98324.67
2018-06-17T13:59:56.053Z,98329.58
2018-06-17T14:02:26.360Z,98340.02
2018-06-17T14:04:56.310Z,98342.70
2018-06-17T14:07:26.278Z,98344.34
2018-06-17T14:09:57.786Z,98351.19
2018-06-17T14:12:27.772Z,98348.95
2018-06-17T14:14:57.826Z,98348.05
2018-06-17T14:17:29.019Z,98343.97
2018-06-17T14:19:58.984Z,98341.20
2018-06-17T14:22:29.731Z,98334.08
2018-06-17T14:24:59.939Z,98347.50
2018-06-17T14:27:30.381Z,98338.44
2018-06-17T14:30:00.434Z,98338.34
2018-06-17T14:32:30.316Z,98332.04
2018-06-17T14:35:00.213Z,98337.34
2018-06-17T14:37:32.819Z,98344.70
2018-06-17T14:40:03.082Z,98346.44
2018-06-17T14:42:38.074Z,98341.66
2018-06-17T14:45:15.253Z,98347.23
2018-06-17T14:47:50.272Z,98339.84
2018-06-17T14:50:26.480Z,98346.66
2018-06-17T14:53:01.389Z,98340.72
2018-06-17T14:55:31.606Z,98340.18
2018-06-17T14:58:01.567Z,98345.83
2018-06-17T15:00:31.521Z,98341.38
2018-06-17T15:03:03.024Z,98347.41
2018-06-17T15:05:33.309Z,98342.79
2018-06-17T15:08:03.279Z,98355.83
2018-06-17T15:10:33.398Z,98346.79
2018-06-17T15:13:03.460Z,98349.50
2018-06-17T15:15:35.980Z,98354.49
2018-06-17T15:18:06.342Z,98350.14
2018-06-17T15:20:41.001Z,98349.51
2018-06-17T15:23:19.084Z,98344.00
2018-06-17T15:25:50.481Z,98344.00
2018-06-17T15:28:20.617Z,98340.16
2018-06-17T15:30:51.713Z,98345.84
2018-06-17T15:33:26.867Z,98342.52
2018-06-17T15:36:02.180Z,98344.52
2018-06-17T15:38:38.168Z,98346.36
2018-06-17T15:41:13.785Z,98348.52
2018-06-17T15:43:44.922Z,98337.17
2018-06-17T15:46:16.410Z,98348.17
2018-06-17T15:48:47.028Z,98347.49
2018-06-17T15:51:18.831Z,98350.82
2018-06-17T15:53:56.253Z,98345.50
2018-06-17T15:56:33.559Z,98351.84
2018-06-17T15:59:13.772Z,98357.13
2018-06-17T16:01:44.046Z,98353.99
2018-06-17T16:04:14.267Z,98350.81
2018-06-17T16:06:45.635Z,98352.47
2018-06-17T16:09:15.643Z,98345.50
2018-06-17T16:11:52.413Z,98344.47
2018-06-17T16:14:27.429Z,98344.66
2018-06-17T16:17:09.999Z,98339.15
2018-06-17T16:19:45.170Z,98343.47
2018-06-17T16:22:26.860Z,98209.06
2018-06-17T16:24:56.835Z,98347.98
2018-06-17T16:27:27.013Z,98347.48
2018-06-17T16:29:57.864Z,98350.31
2018-06-17T16:32:28.231Z,98353.45
2018-06-17T16:35:22.898Z,98354.45
2018-06-17T16:37:53.727Z,98355.13
2018-06-17T16:40:24.147Z,98355.64
2018-06-17T16:42:55.139Z,98350.10
2018-06-17T16:45:25.466Z,98359.63
2018-06-17T16:47:56.096Z,98350.80
2018-06-17T16:50:26.370Z,98352.14
2018-06-17T16:53:01.198Z,98356.11
2018-06-17T16:55:36.645Z,98356.55
2018-06-17T16:58:12.283Z,98360.30
2018-06-17T17:00:43.644Z,98360.05
2018-06-17T17:03:21.155Z,98359.73
2018-06-17T17:05:58.445Z,98356.72
2018-06-17T17:08:28.545Z,98366.77
2018-06-17T17:11:06.949Z,98366.05
2018-06-17T17:13:37.753Z,98370.77
2018-06-17T17:16:08.994Z,98374.53
2018-06-17T17:18:40.810Z,98377.48
2018-06-17T17:21:11.576Z,98376.31
2018-06-17T17:23:42.008Z,98380.29
2018-06-17T17:26:12.046Z,98380.12
2018-06-17T17:28:42.418Z,98388.57
2018-06-17T17:31:12.542Z,98390.02
2018-06-17T17:33:47.670Z,98395.52
2018-06-17T17:36:24.857Z,98397.94
2018-06-17T17:39:01.051Z,98394.74
2018-06-17T17:41:32.019Z,98392.25
2018-06-17T17:44:02.892Z,98393.02
2018-06-17T17:46:38.487Z,98390.11
2018-06-17T17:49:08.605Z,98394.08
2018-06-17T17:51:43.091Z,98395.80
2018-06-17T17:54:18.655Z,98398.62
2018-06-17T18:00:05.495Z,98403.72
2018-06-17T18:02:37.214Z,98405.14
2018-06-17T18:05:07.429Z,98410.63
2018-06-17T18:07:38.067Z,98410.46
2018-06-17T18:10:09.413Z,98411.43
2018-06-17T18:12:39.547Z,98419.00
2018-06-17T18:18:18.776Z,98420.09
2018-06-17T18:20:52.343Z,98421.66
2018-06-17T18:23:24.319Z,98421.42
2018-06-17T18:28:02.491Z,98425.13
2018-06-17T18:30:44.432Z,98430.13
2018-06-17T18:33:19.828Z,98432.45
2018-06-17T18:35:55.352Z,98434.79
2018-06-17T18:38:25.530Z,98436.78
2018-06-17T18:40:56.160Z,98438.90
2018-06-17T18:43:27.411Z,98442.42
2018-06-17T18:45:57.739Z,98442.23
2018-06-17T18:48:28.163Z,98435.28
2018-06-17T18:50:58.276Z,98436.48
2018-06-17T18:53:28.673Z,98443.33
2018-06-17T18:56:04.666Z,98447.59
2018-06-17T18:58:34.824Z,98452.20
2018-06-17T19:01:05.180Z,98453.94
2018-06-17T19:03:35.151Z,98460.53
2018-06-17T19:06:05.066Z,98463.80
2018-06-17T19:08:42.013Z,98465.86
2018-06-17T19:11:16.996Z,98476.97
2018-06-17T19:17:05.417Z,98496.63
2018-06-17T19:19:40.638Z,98498.20
2018-06-17T19:22:13.100Z,98497.71
2018-06-17T19:24:44.066Z,98504.67
2018-06-17T19:27:14.063Z,98506.59
2018-06-17T19:29:45.555Z,98517.84
2018-06-17T19:32:15.555Z,98521.11
2018-06-17T19:34:45.761Z,98525.84
2018-06-17T19:37:22.991Z,98523.48
2018-06-17T19:39:54.812Z,98528.53
2018-06-17T19:42:25.196Z,98525.45
2018-06-17T19:44:55.484Z,98522.05
2018-06-17T19:47:25.581Z,98525.39
2018-06-17T19:50:01.363Z,98523.28
2018-06-17T19:52:36.492Z,98520.07
2018-06-17T19:55:12.280Z,98520.84
2018-06-17T19:57:47.311Z,98527.38
2018-06-17T20:00:29.941Z,98534.50
2018-06-17T20:03:00.518Z,98535.47
2018-06-17T20:05:30.373Z,98535.84
2018-06-17T20:08:07.792Z,98542.40
2018-06-17T20:10:38.968Z,98534.31
2018-06-17T20:13:11.008Z,98543.30
2018-06-17T20:15:42.992Z,98541.09
2018-06-17T20:18:14.237Z,98534.34
2018-06-17T20:24:54.059Z,98544.06
2018-06-17T20:27:25.049Z,98551.88
2018-06-17T20:29:58.963Z,98560.63
2018-06-17T20:32:34.375Z,98560.42
2018-06-17T20:35:24.471Z,98562.51
2018-06-17T20:37:59.713Z,98566.82
2018-06-17T20:40:35.161Z,98568.30
2018-06-17T20:43:10.438Z,98568.37
2018-06-17T20:45:44.177Z,98559.00
2018-06-17T20:48:14.342Z,98561.36
2018-06-17T20:50:44.429Z,98560.60
2018-06-17T20:53:15.823Z,98568.22
2018-06-17T20:55:47.351Z,98567.50
2018-06-17T20:58:19.431Z,98566.78
2018-06-17T21:00:50.065Z,98567.77
2018-06-17T21:03:20.568Z,98573.30
2018-06-17T21:05:51.011Z,98575.73
2018-06-17T21:08:22.465Z,98577.34
2018-06-17T21:10:54.218Z,98572.34
2018-06-17T21:13:24.757Z,98574.89
2018-06-17T21:15:54.906Z,98581.20
2018-06-17T21:18:30.217Z,98580.44
2018-06-17T21:21:05.838Z,98576.03
2018-06-17T21:23:40.697Z,98581.03
2018-06-17T21:26:16.090Z,98576.84
2018-06-17T21:28:46.052Z,98573.25
2018-06-17T21:31:16.148Z,98577.51
2018-06-17T21:33:46.332Z,98581.14
2018-06-17T21:36:16.268Z,98573.45
2018-06-17T21:38:46.774Z,98576.76
2018-06-17T21:41:17.001Z,98586.38
2018-06-17T21:43:48.056Z,98585.06
2018-06-17T21:46:20.219Z,98584.02
2018-06-17T21:48:52.277Z,98580.28
2018-06-17T21:51:24.102Z,98587.84
2018-06-17T21:53:54.396Z,98582.81
2018-06-17T21:56:24.606Z,98589.34
2018-06-17T21:58:55.427Z,98589.05
2018-06-17T22:01:25.493Z,98587.03
2018-06-17T22:03:59.452Z,98592.69
2018-06-17T22:06:37.583Z,98598.80
2018-06-17T22:12:07.411Z,98604.59
2018-06-17T22:14:42.557Z,98590.71
2018-06-17T22:17:20.389Z,98602.23
2018-06-17T22:19:50.922Z,98600.94
2018-06-17T22:23:43.015Z,98607.45
2018-06-17T22:26:13.223Z,98609.42
2018-06-17T22:28:43.664Z,98580.11
2018-06-17T22:31:14.003Z,98617.31
2018-06-17T22:33:45.238Z,98613.72
2018-06-17T22:36:15.677Z,98614.33
2018-06-17T22:38:46.295Z,98614.20
2018-06-17T22:41:19.476Z,98613.84
2018-06-17T22:43:49.796Z,98619.02
2018-06-17T22:46:19.927Z,98625.50
2018-06-17T22:48:49.919Z,98625.75
2018-06-17T22:51:21.387Z,98634.66
2018-06-17T22:54:01.961Z,98635.23
2018-06-17T22:56:37.346Z,98632.73
2018-06-17T22:59:12.337Z,98634.16
2018-06-17T23:01:47.381Z,98636.56
2018-06-17T23:04:23.936Z,98639.68
2018-06-17T23:06:58.877Z,98637.41
2018-06-17T23:09:34.446Z,98644.72
2018-06-17T23:12:04.570Z,98642.08
2018-06-17T23:14:34.738Z,98648.45
2018-06-17T23:17:09.170Z,98649.63
2018-06-17T23:19:39.483Z,98649.16
2018-06-17T23:22:09.896Z,98647.13
2018-06-17T23:24:39.893Z,98646.66
2018-06-17T23:27:09.770Z,98651.56
2018-06-17T23:29:41.238Z,98651.56
2018-06-17T23:32:11.255Z,98652.03
2018-06-17T23:34:41.205Z,98657.08
2018-06-17T23:37:11.133Z,98647.83
2018-06-17T23:39:41.398Z,98664.02
2018-06-17T23:42:11.710Z,98658.73
2018-06-17T23:44:41.589Z,98662.22
2018-06-17T23:47:16.414Z,98654.77
2018-06-17T23:49:51.294Z,98653.97
2018-06-17T23:52:30.420Z,98655.05
2018-06-17T23:55:05.470Z,98664.16
2018-06-17T23:57:35.406Z,98663.31
